createdAt,value
2019-04-27T00:00:16.621Z,81.37
2019-04-27T00:03:06.254Z,81.30
2019-04-27T00:05:40.064Z,81.20
2019-04-27T00:08:11.289Z,80.94
2019-04-27T00:10:59.797Z,81.19
2019-04-27T00:13:29.437Z,81.43
2019-04-27T00:16:13.426Z,81.46
2019-04-27T00:18:45.508Z,81.63
2019-04-27T00:21:33.796Z,81.98
2019-04-27T00:24:03.535Z,82.14
2019-04-27T00:26:33.506Z,82.26
2019-04-27T00:29:03.875Z,82.28
2019-04-27T00:31:33.741Z,82.08
2019-04-27T00:34:03.696Z,82.06
2019-04-27T00:36:35.234Z,81.77
2019-04-27T00:39:24.490Z,81.52
2019-04-27T00:41:53.964Z,81.01
2019-04-27T00:44:23.749Z,80.82
2019-04-27T00:46:53.491Z,80.45
2019-04-27T00:49:23.889Z,80.89
2019-04-27T00:51:53.657Z,80.87
2019-04-27T00:54:23.814Z,80.87
2019-04-27T00:56:55.091Z,81.24
2019-04-27T00:59:43.168Z,81.69
2019-04-27T01:02:29.714Z,82.20
2019-04-27T01:04:59.386Z,82.60
2019-04-27T01:07:28.864Z,83.12
2019-04-27T01:09:58.315Z,83.46
2019-04-27T01:12:27.826Z,83.48
2019-04-27T01:14:57.268Z,83.83
2019-04-27T01:17:26.678Z,84.02
2019-04-27T01:19:56.121Z,84.31
2019-04-27T01:22:25.522Z,84.44
2019-04-27T01:24:55.102Z,84.54
2019-04-27T01:27:26.697Z,84.39
2019-04-27T01:29:56.511Z,84.32
2019-04-27T01:32:26.035Z,84.39
2019-04-27T01:34:56.738Z,84.54
2019-04-27T01:37:26.185Z,84.77
2019-04-27T01:39:55.635Z,84.88
2019-04-27T01:42:25.071Z,84.92
2019-04-27T01:44:54.679Z,84.75
2019-04-27T01:47:24.223Z,84.75
2019-04-27T01:49:53.654Z,84.81
2019-04-27T01:52:23.135Z,84.82
2019-04-27T01:54:52.651Z,84.96
2019-04-27T01:57:22.054Z,85.02
2019-04-27T01:59:51.501Z,85.23
2019-04-27T02:02:39.575Z,85.46
2019-04-27T02:05:29.000Z,85.61
2019-04-27T02:07:59.320Z,85.81
2019-04-27T02:10:29.395Z,85.90
2019-04-27T02:12:58.820Z,85.96
2019-04-27T02:15:29.364Z,85.99
2019-04-27T02:17:59.728Z,85.88
2019-04-27T02:20:30.102Z,86.05
2019-04-27T02:22:59.730Z,85.92
2019-04-27T02:25:29.540Z,85.78
2019-04-27T02:28:00.823Z,85.63
2019-04-27T02:30:47.384Z,85.70
2019-04-27T02:33:34.819Z,85.51
2019-04-27T02:36:04.471Z,85.54
2019-04-27T02:38:33.913Z,85.50
2019-04-27T02:41:04.543Z,85.42
2019-04-27T02:43:35.663Z,85.39
2019-04-27T02:46:05.455Z,85.28
2019-04-27T02:48:51.911Z,85.14
2019-04-27T02:51:09.923Z,84.71
2019-04-27T02:53:55.218Z,84.68
2019-04-27T02:56:25.775Z,84.75
2019-04-27T02:58:55.246Z,84.80
2019-04-27T03:01:30.527Z,85.08
2019-04-27T03:04:00.622Z,85.13
2019-04-27T03:06:30.410Z,85.73
2019-04-27T03:09:00.665Z,85.66
2019-04-27T03:11:31.708Z,85.83
2019-04-27T03:14:29.742Z,85.66
2019-04-27T03:16:52.149Z,85.71
2019-04-27T03:22:29.796Z,85.42
2019-04-27T03:25:14.939Z,85.44
2019-04-27T03:27:43.594Z,85.24
2019-04-27T03:30:15.068Z,85.43
2019-04-27T03:32:44.892Z,84.87
2019-04-27T03:35:14.462Z,85.14
2019-04-27T03:37:44.484Z,85.01
2019-04-27T03:40:14.261Z,85.19
2019-04-27T03:42:45.311Z,85.18
2019-04-27T03:45:14.947Z,85.29
2019-04-27T03:47:44.823Z,85.53
2019-04-27T03:50:16.206Z,85.56
2019-04-27T03:52:50.163Z,85.78
2019-04-27T03:55:42.497Z,85.90
2019-04-27T03:58:21.382Z,85.96
2019-04-27T04:00:52.124Z,85.99
2019-04-27T04:03:21.395Z,85.77
2019-04-27T04:05:51.933Z,85.71
2019-04-27T04:08:21.806Z,85.72
2019-04-27T04:11:02.143Z,85.72
2019-04-27T04:13:33.223Z,85.91
2019-04-27T04:16:07.796Z,85.92
2019-04-27T04:18:56.269Z,85.73
2019-04-27T04:21:25.905Z,86.07
2019-04-27T04:23:55.414Z,86.06
2019-04-27T04:26:24.883Z,86.33
2019-04-27T04:28:54.304Z,86.52
2019-04-27T04:31:23.926Z,86.53
2019-04-27T04:33:53.327Z,86.51
2019-04-27T04:36:22.963Z,86.50
2019-04-27T04:38:52.435Z,86.27
2019-04-27T04:41:26.625Z,85.57
2019-04-27T04:44:12.531Z,85.44
2019-04-27T04:47:00.102Z,84.77
2019-04-27T04:49:29.589Z,84.03
2019-04-27T04:51:59.676Z,83.24
2019-04-27T04:54:29.921Z,82.41
2019-04-27T04:56:59.729Z,81.89
2019-04-27T04:59:29.298Z,81.28
2019-04-27T05:02:01.880Z,81.04
2019-04-27T05:04:30.182Z,80.86
2019-04-27T05:06:59.653Z,80.86
2019-04-27T05:09:30.621Z,80.85
2019-04-27T05:12:00.732Z,79.90
2019-04-27T05:14:30.164Z,78.97
2019-04-27T05:16:59.609Z,78.04
2019-04-27T05:19:29.685Z,76.12
2019-04-27T05:21:59.412Z,75.65
2019-04-27T05:24:29.356Z,74.86
2019-04-27T05:26:59.138Z,73.41
2019-04-27T05:29:29.269Z,72.28
2019-04-27T05:31:59.378Z,72.43
2019-04-27T05:34:29.591Z,73.89
2019-04-27T05:37:01.070Z,75.81
2019-04-27T05:39:30.305Z,76.46
2019-04-27T05:41:59.976Z,76.48
2019-04-27T05:44:50.441Z,76.52
2019-04-27T05:47:21.534Z,77.09
2019-04-27T05:49:52.303Z,77.01
2019-04-27T05:52:29.482Z,76.98
2019-04-27T05:54:59.393Z,77.40
2019-04-27T05:57:31.428Z,77.83
2019-04-27T06:00:02.105Z,77.10
2019-04-27T06:02:33.347Z,77.59
2019-04-27T06:05:02.903Z,77.33
2019-04-27T06:07:32.341Z,77.33
2019-04-27T06:10:02.438Z,76.70
2019-04-27T06:12:32.138Z,77.36
2019-04-27T06:15:01.556Z,77.31
2019-04-27T06:17:31.006Z,76.77
2019-04-27T06:20:00.415Z,77.29
2019-04-27T06:22:29.943Z,77.85
2019-04-27T06:25:00.156Z,78.06
2019-04-27T06:27:31.741Z,78.27
2019-04-27T06:30:01.151Z,78.33
2019-04-27T06:32:30.825Z,77.81
2019-04-27T06:35:00.306Z,77.89
2019-04-27T06:37:30.766Z,78.25
2019-04-27T06:40:00.242Z,78.67
2019-04-27T06:42:30.198Z,77.46
2019-04-27T06:45:00.383Z,76.37
2019-04-27T06:47:30.196Z,76.87
2019-04-27T06:49:59.710Z,75.90
2019-04-27T06:52:29.428Z,77.04
2019-04-27T06:55:00.635Z,77.12
2019-04-27T06:57:30.481Z,76.68
2019-04-27T06:59:59.993Z,77.09
2019-04-27T07:02:29.506Z,77.36
2019-04-27T07:04:59.320Z,76.88
2019-04-27T07:07:29.591Z,77.20
2019-04-27T07:09:59.282Z,76.94
2019-04-27T07:12:29.019Z,76.06
2019-04-27T07:14:59.203Z,77.06
2019-04-27T07:17:29.130Z,76.15
2019-04-27T07:19:59.505Z,74.79
2019-04-27T07:22:29.972Z,74.39
2019-04-27T07:24:59.471Z,74.08
2019-04-27T07:27:29.259Z,72.90
2019-04-27T07:29:59.589Z,71.06
2019-04-27T07:32:29.955Z,71.22
2019-04-27T07:34:59.364Z,69.62
2019-04-27T07:37:29.405Z,69.02
2019-04-27T07:39:59.276Z,71.23
2019-04-27T07:42:31.612Z,70.61
2019-04-27T07:45:03.258Z,71.19
2019-04-27T07:47:32.885Z,70.32
2019-04-27T07:50:02.326Z,71.13
2019-04-27T07:52:31.788Z,70.49
2019-04-27T07:55:01.400Z,70.81
2019-04-27T07:57:31.322Z,69.70
2019-04-27T08:00:00.971Z,70.39
2019-04-27T08:02:30.393Z,70.45
2019-04-27T08:04:59.829Z,70.22
2019-04-27T08:07:29.775Z,71.06
2019-04-27T08:10:01.610Z,72.06
2019-04-27T08:12:30.431Z,73.96
2019-04-27T08:15:00.130Z,74.35
2019-04-27T08:17:30.196Z,75.50
2019-04-27T08:19:59.844Z,76.18
2019-04-27T08:22:29.422Z,77.42
2019-04-27T08:24:59.565Z,78.83
2019-04-27T08:27:32.401Z,79.72
2019-04-27T08:30:12.295Z,80.02
2019-04-27T08:32:43.357Z,80.77
2019-04-27T08:35:13.149Z,81.65
2019-04-27T08:37:42.691Z,82.19
2019-04-27T08:40:12.373Z,82.01
2019-04-27T08:42:41.975Z,81.67
2019-04-27T08:45:12.230Z,82.78
2019-04-27T08:47:41.887Z,82.36
2019-04-27T08:50:11.533Z,81.82
2019-04-27T08:52:41.885Z,81.48
2019-04-27T08:55:13.259Z,81.52
2019-04-27T08:57:42.709Z,82.46
2019-04-27T09:00:12.409Z,81.60
2019-04-27T09:02:46.961Z,80.41
2019-04-27T09:05:13.424Z,81.53
2019-04-27T09:07:50.995Z,81.77
2019-04-27T09:10:22.456Z,82.00
2019-04-27T09:12:56.264Z,82.08
2019-04-27T09:15:33.341Z,81.53
2019-04-27T09:18:03.562Z,81.76
2019-04-27T09:20:38.966Z,81.25
2019-04-27T09:23:09.870Z,81.48
2019-04-27T09:25:39.785Z,80.19
2019-04-27T09:28:10.991Z,79.87
2019-04-27T09:30:40.642Z,80.30
2019-04-27T09:33:10.086Z,79.79
2019-04-27T09:35:39.831Z,79.32
2019-04-27T09:38:09.261Z,78.85
2019-04-27T09:40:38.733Z,79.90
